Terminal Aerodrome Forecast
Issued by NWS

Home | Current Version | Previous Version | Text Only | Print | Product List | Glossary On
Versions: 1 2 3 4 5 6 7 8 9 10 11 12 13 14
000
FTUS43 KGRR 202352
TAFJXN
TAF
KJXN 202352Z 2100/2124 VRB03KT P6SM BKN200
     FM210300 19004KT P6SM VCSH SCT050 BKN100
     FM210900 VRB03KT 3SM BR BKN100
     FM211500 20008KT P6SM BKN050
     FM211800 21009KT P6SM VCTS BKN050CB=

USA.gov is the U.S. government's official web portal to all federal, state and local government web resources and services.